sensor_id;sensor_type;location;lat;lon;timestamp;P1;durP1;ratioP1;P2;durP2;ratioP2
61702;SDS011;47622;47.726;3.298;2023-07-20T00:01:22;4.00;;;2.00;;
61702;SDS011;47622;47.726;3.298;2023-07-20T00:03:47;3.35;;;2.13;;
61702;SDS011;47622;47.726;3.298;2023-07-20T00:06:19;3.78;;;2.10;;
61702;SDS011;47622;47.726;3.298;2023-07-20T00:08:54;3.03;;;2.22;;
61702;SDS011;47622;47.726;3.298;2023-07-20T00:11:21;2.65;;;2.03;;
61702;SDS011;47622;47.726;3.298;2023-07-20T00:13:51;2.05;;;1.80;;
61702;SDS011;47622;47.726;3.298;2023-07-20T00:16:16;2.88;;;2.10;;
61702;SDS011;47622;47.726;3.298;2023-07-20T00:18:42;4.22;;;2.28;;
61702;SDS011;47622;47.726;3.298;2023-07-20T00:21:07;4.53;;;2.17;;
61702;SDS011;47622;47.726;3.298;2023-07-20T00:23:33;4.93;;;2.20;;
61702;SDS011;47622;47.726;3.298;2023-07-20T00:25:59;2.55;;;2.10;;
61702;SDS011;47622;47.726;3.298;2023-07-20T00:28:24;3.42;;;2.17;;
61702;SDS011;47622;47.726;3.298;2023-07-20T00:30:50;2.67;;;2.20;;
61702;SDS011;47622;47.726;3.298;2023-07-20T00:33:16;4.63;;;2.05;;
61702;SDS011;47622;47.726;3.298;2023-07-20T00:35:42;4.13;;;2.00;;
61702;SDS011;47622;47.726;3.298;2023-07-20T00:38:07;5.63;;;2.33;;
61702;SDS011;47622;47.726;3.298;2023-07-20T00:40:38;3.40;;;2.00;;
61702;SDS011;47622;47.726;3.298;2023-07-20T00:43:05;3.40;;;2.33;;
61702;SDS011;47622;47.726;3.298;2023-07-20T00:45:31;2.97;;;2.20;;
61702;SDS011;47622;47.726;3.298;2023-07-20T00:47:59;3.35;;;2.20;;
61702;SDS011;47622;47.726;3.298;2023-07-20T00:50:26;2.67;;;1.80;;
61702;SDS011;47622;47.726;3.298;2023-07-20T00:52:54;4.28;;;2.63;;
61702;SDS011;47622;47.726;3.298;2023-07-20T00:55:20;2.25;;;1.80;;
61702;SDS011;47622;47.726;3.298;2023-07-20T00:57:47;3.13;;;2.38;;
61702;SDS011;47622;47.726;3.298;2023-07-20T01:00:13;3.20;;;2.17;;
61702;SDS011;47622;47.726;3.298;2023-07-20T01:02:40;2.53;;;2.17;;
61702;SDS011;47622;47.726;3.298;2023-07-20T01:05:05;2.80;;;1.83;;
61702;SDS011;47622;47.726;3.298;2023-07-20T01:07:34;3.05;;;2.10;;
61702;SDS011;47622;47.726;3.298;2023-07-20T01:12:40;3.38;;;2.28;;
61702;SDS011;47622;47.726;3.298;2023-07-20T01:15:13;3.67;;;2.00;;
61702;SDS011;47622;47.726;3.298;2023-07-20T01:17:39;4.28;;;2.10;;
61702;SDS011;47622;47.726;3.298;2023-07-20T01:20:06;2.83;;;2.20;;
61702;SDS011;47622;47.726;3.298;2023-07-20T01:28:13;2.67;;;2.17;;
61702;SDS011;47622;47.726;3.298;2023-07-20T01:31:09;5.35;;;2.40;;
61702;SDS011;47622;47.726;3.298;2023-07-20T01:33:38;3.25;;;2.10;;
61702;SDS011;47622;47.726;3.298;2023-07-20T01:36:05;3.83;;;2.40;;
61702;SDS011;47622;47.726;3.298;2023-07-20T01:38:32;4.93;;;2.80;;
61702;SDS011;47622;47.726;3.298;2023-07-20T01:40:58;6.57;;;2.33;;
61702;SDS011;47622;47.726;3.298;2023-07-20T01:43:24;3.05;;;2.28;;
61702;SDS011;47622;47.726;3.298;2023-07-20T01:45:49;3.35;;;2.30;;
61702;SDS011;47622;47.726;3.298;2023-07-20T01:48:15;3.80;;;2.35;;
61702;SDS011;47622;47.726;3.298;2023-07-20T01:50:40;3.20;;;2.40;;
61702;SDS011;47622;47.726;3.298;2023-07-20T01:53:08;4.72;;;2.20;;
61702;SDS011;47622;47.726;3.298;2023-07-20T01:55:33;4.70;;;2.65;;
61702;SDS011;47622;47.726;3.298;2023-07-20T01:57:59;3.28;;;2.58;;
61702;SDS011;47622;47.726;3.298;2023-07-20T02:00:26;2.38;;;2.10;;
61702;SDS011;47622;47.726;3.298;2023-07-20T02:02:51;3.83;;;2.15;;
61702;SDS011;47622;47.726;3.298;2023-07-20T02:05:18;4.20;;;2.03;;
61702;SDS011;47622;47.726;3.298;2023-07-20T02:07:43;2.65;;;2.20;;
61702;SDS011;47622;47.726;3.298;2023-07-20T02:10:09;3.70;;;2.50;;
61702;SDS011;47622;47.726;3.298;2023-07-20T02:12:35;3.85;;;2.40;;
61702;SDS011;47622;47.726;3.298;2023-07-20T02:15:04;3.50;;;2.40;;
61702;SDS011;47622;47.726;3.298;2023-07-20T02:17:30;2.85;;;2.05;;
61702;SDS011;47622;47.726;3.298;2023-07-20T02:19:56;4.50;;;2.15;;
61702;SDS011;47622;47.726;3.298;2023-07-20T02:22:25;3.40;;;2.20;;
61702;SDS011;47622;47.726;3.298;2023-07-20T02:24:50;3.55;;;2.20;;
61702;SDS011;47622;47.726;3.298;2023-07-20T02:27:16;4.40;;;2.40;;
61702;SDS011;47622;47.726;3.298;2023-07-20T02:29:42;3.17;;;2.17;;
61702;SDS011;47622;47.726;3.298;2023-07-20T02:32:08;3.28;;;2.20;;
61702;SDS011;47622;47.726;3.298;2023-07-20T02:34:37;2.70;;;2.25;;
61702;SDS011;47622;47.726;3.298;2023-07-20T02:37:03;2.88;;;2.28;;
61702;SDS011;47622;47.726;3.298;2023-07-20T02:39:29;5.80;;;2.40;;
61702;SDS011;47622;47.726;3.298;2023-07-20T02:41:55;3.92;;;2.38;;
61702;SDS011;47622;47.726;3.298;2023-07-20T02:44:21;2.92;;;2.30;;
61702;SDS011;47622;47.726;3.298;2023-07-20T02:46:47;4.93;;;2.20;;
61702;SDS011;47622;47.726;3.298;2023-07-20T02:49:14;3.90;;;2.55;;
61702;SDS011;47622;47.726;3.298;2023-07-20T02:51:40;2.78;;;2.20;;
61702;SDS011;47622;47.726;3.298;2023-07-20T02:54:07;2.95;;;1.95;;
61702;SDS011;47622;47.726;3.298;2023-07-20T02:56:34;4.35;;;2.30;;
61702;SDS011;47622;47.726;3.298;2023-07-20T02:59:01;2.97;;;2.47;;
61702;SDS011;47622;47.726;3.298;2023-07-20T03:01:28;3.45;;;2.40;;
61702;SDS011;47622;47.726;3.298;2023-07-20T03:03:57;4.68;;;2.40;;
61702;SDS011;47622;47.726;3.298;2023-07-20T03:06:22;3.30;;;2.28;;
61702;SDS011;47622;47.726;3.298;2023-07-20T03:08:49;5.53;;;2.40;;
61702;SDS011;47622;47.726;3.298;2023-07-20T03:11:17;3.03;;;2.22;;
61702;SDS011;47622;47.726;3.298;2023-07-20T03:13:44;5.20;;;2.35;;
61702;SDS011;47622;47.726;3.298;2023-07-20T03:16:10;3.67;;;2.40;;
61702;SDS011;47622;47.726;3.298;2023-07-20T03:18:39;3.97;;;2.38;;
61702;SDS011;47622;47.726;3.298;2023-07-20T03:21:05;3.90;;;2.50;;
61702;SDS011;47622;47.726;3.298;2023-07-20T03:23:32;4.30;;;2.45;;
61702;SDS011;47622;47.726;3.298;2023-07-20T03:25:58;3.95;;;2.53;;
61702;SDS011;47622;47.726;3.298;2023-07-20T03:28:23;3.60;;;2.28;;
61702;SDS011;47622;47.726;3.298;2023-07-20T03:30:53;4.55;;;2.63;;
61702;SDS011;47622;47.726;3.298;2023-07-20T03:33:20;3.97;;;2.38;;
61702;SDS011;47622;47.726;3.298;2023-07-20T03:35:47;3.97;;;2.40;;
61702;SDS011;47622;47.726;3.298;2023-07-20T03:38:12;4.10;;;2.47;;
61702;SDS011;47622;47.726;3.298;2023-07-20T03:40:38;5.25;;;2.55;;
61702;SDS011;47622;47.726;3.298;2023-07-20T03:43:03;3.13;;;2.40;;
61702;SDS011;47622;47.726;3.298;2023-07-20T03:45:29;3.67;;;2.30;;
61702;SDS011;47622;47.726;3.298;2023-07-20T03:47:55;3.10;;;1.98;;
61702;SDS011;47622;47.726;3.298;2023-07-20T03:50:21;3.88;;;2.30;;
61702;SDS011;47622;47.726;3.298;2023-07-20T03:52:48;4.72;;;2.28;;
61702;SDS011;47622;47.726;3.298;2023-07-20T03:55:14;3.53;;;2.42;;
61702;SDS011;47622;47.726;3.298;2023-07-20T03:57:39;4.18;;;2.35;;
61702;SDS011;47622;47.726;3.298;2023-07-20T04:00:05;3.15;;;2.40;;
61702;SDS011;47622;47.726;3.298;2023-07-20T04:02:33;5.18;;;2.58;;
61702;SDS011;47622;47.726;3.298;2023-07-20T04:04:58;3.28;;;2.10;;
61702;SDS011;47622;47.726;3.298;2023-07-20T04:07:24;3.08;;;2.50;;
61702;SDS011;47622;47.726;3.298;2023-07-20T04:09:50;3.25;;;2.28;;
61702;SDS011;47622;47.726;3.298;2023-07-20T04:12:15;4.35;;;2.60;;
61702;SDS011;47622;47.726;3.298;2023-07-20T04:14:41;2.83;;;2.30;;
61702;SDS011;47622;47.726;3.298;2023-07-20T04:17:07;4.55;;;2.47;;
61702;SDS011;47622;47.726;3.298;2023-07-20T04:19:37;2.60;;;2.05;;
61702;SDS011;47622;47.726;3.298;2023-07-20T04:22:02;3.25;;;2.30;;
61702;SDS011;47622;47.726;3.298;2023-07-20T04:24:28;5.35;;;2.22;;
61702;SDS011;47622;47.726;3.298;2023-07-20T04:26:54;3.95;;;2.33;;
61702;SDS011;47622;47.726;3.298;2023-07-20T04:29:20;3.65;;;2.08;;
61702;SDS011;47622;47.726;3.298;2023-07-20T04:31:45;3.60;;;2.30;;
61702;SDS011;47622;47.726;3.298;2023-07-20T04:34:12;3.22;;;2.35;;
61702;SDS011;47622;47.726;3.298;2023-07-20T04:36:37;3.53;;;2.15;;
61702;SDS011;47622;47.726;3.298;2023-07-20T04:39:03;2.40;;;2.20;;
61702;SDS011;47622;47.726;3.298;2023-07-20T04:41:30;3.13;;;2.40;;
61702;SDS011;47622;47.726;3.298;2023-07-20T04:43:55;6.88;;;2.33;;
61702;SDS011;47622;47.726;3.298;2023-07-20T04:46:21;4.53;;;2.33;;
61702;SDS011;47622;47.726;3.298;2023-07-20T04:48:47;3.33;;;2.30;;
61702;SDS011;47622;47.726;3.298;2023-07-20T04:51:13;3.25;;;2.17;;
61702;SDS011;47622;47.726;3.298;2023-07-20T04:53:39;3.10;;;2.15;;
61702;SDS011;47622;47.726;3.298;2023-07-20T04:56:04;5.97;;;2.40;;
61702;SDS011;47622;47.726;3.298;2023-07-20T04:58:30;5.28;;;2.08;;
61702;SDS011;47622;47.726;3.298;2023-07-20T05:00:56;4.03;;;2.25;;
61702;SDS011;47622;47.726;3.298;2023-07-20T05:03:21;3.72;;;2.22;;
61702;SDS011;47622;47.726;3.298;2023-07-20T05:05:48;5.07;;;2.35;;
61702;SDS011;47622;47.726;3.298;2023-07-20T05:08:14;5.03;;;2.30;;
61702;SDS011;47622;47.726;3.298;2023-07-20T05:10:39;4.38;;;2.40;;
61702;SDS011;47622;47.726;3.298;2023-07-20T05:13:05;6.93;;;2.38;;
61702;SDS011;47622;47.726;3.298;2023-07-20T05:15:32;5.05;;;2.80;;
61702;SDS011;47622;47.726;3.298;2023-07-20T05:17:59;3.55;;;2.60;;
61702;SDS011;47622;47.726;3.298;2023-07-20T05:20:24;4.13;;;2.72;;
61702;SDS011;47622;47.726;3.298;2023-07-20T05:22:50;4.80;;;2.60;;
61702;SDS011;47622;47.726;3.298;2023-07-20T05:25:16;3.88;;;2.30;;
61702;SDS011;47622;47.726;3.298;2023-07-20T05:27:43;3.72;;;2.50;;
61702;SDS011;47622;47.726;3.298;2023-07-20T05:30:10;4.97;;;2.33;;
61702;SDS011;47622;47.726;3.298;2023-07-20T05:32:36;4.65;;;2.70;;
61702;SDS011;47622;47.726;3.298;2023-07-20T05:35:01;6.03;;;2.80;;
61702;SDS011;47622;47.726;3.298;2023-07-20T05:37:27;3.42;;;2.65;;
61702;SDS011;47622;47.726;3.298;2023-07-20T05:39:53;3.08;;;2.53;;
61702;SDS011;47622;47.726;3.298;2023-07-20T05:42:18;4.38;;;2.72;;
61702;SDS011;47622;47.726;3.298;2023-07-20T05:44:44;4.03;;;2.58;;
61702;SDS011;47622;47.726;3.298;2023-07-20T05:47:10;5.28;;;2.38;;
61702;SDS011;47622;47.726;3.298;2023-07-20T05:49:35;4.63;;;2.40;;
61702;SDS011;47622;47.726;3.298;2023-07-20T05:52:01;3.55;;;2.58;;
61702;SDS011;47622;47.726;3.298;2023-07-20T05:54:27;4.25;;;2.50;;
61702;SDS011;47622;47.726;3.298;2023-07-20T05:56:53;4.45;;;2.60;;
61702;SDS011;47622;47.726;3.298;2023-07-20T05:59:19;3.40;;;2.22;;
61702;SDS011;47622;47.726;3.298;2023-07-20T06:01:45;3.35;;;2.30;;
61702;SDS011;47622;47.726;3.298;2023-07-20T06:04:12;10.30;;;2.40;;
61702;SDS011;47622;47.726;3.298;2023-07-20T06:06:37;3.88;;;2.30;;
61702;SDS011;47622;47.726;3.298;2023-07-20T06:09:04;3.80;;;2.33;;
61702;SDS011;47622;47.726;3.298;2023-07-20T06:11:32;4.30;;;2.40;;
61702;SDS011;47622;47.726;3.298;2023-07-20T06:13:58;5.43;;;2.40;;
61702;SDS011;47622;47.726;3.298;2023-07-20T06:16:24;4.03;;;2.60;;
61702;SDS011;47622;47.726;3.298;2023-07-20T06:18:50;5.43;;;2.55;;
61702;SDS011;47622;47.726;3.298;2023-07-20T06:21:15;3.33;;;2.35;;
61702;SDS011;47622;47.726;3.298;2023-07-20T06:23:41;4.07;;;2.50;;
61702;SDS011;47622;47.726;3.298;2023-07-20T06:26:06;3.22;;;2.33;;
61702;SDS011;47622;47.726;3.298;2023-07-20T06:28:33;3.78;;;2.65;;
61702;SDS011;47622;47.726;3.298;2023-07-20T06:31:00;4.18;;;2.30;;
61702;SDS011;47622;47.726;3.298;2023-07-20T06:33:26;3.13;;;2.25;;
61702;SDS011;47622;47.726;3.298;2023-07-20T06:35:51;4.95;;;2.17;;
61702;SDS011;47622;47.726;3.298;2023-07-20T06:38:18;4.07;;;2.40;;
61702;SDS011;47622;47.726;3.298;2023-07-20T06:40:45;3.45;;;2.17;;
61702;SDS011;47622;47.726;3.298;2023-07-20T06:43:12;4.43;;;2.20;;
61702;SDS011;47622;47.726;3.298;2023-07-20T06:45:37;2.50;;;1.98;;
61702;SDS011;47622;47.726;3.298;2023-07-20T06:48:03;4.88;;;2.30;;
61702;SDS011;47622;47.726;3.298;2023-07-20T06:50:29;3.17;;;2.00;;
61702;SDS011;47622;47.726;3.298;2023-07-20T06:52:54;3.45;;;2.10;;
61702;SDS011;47622;47.726;3.298;2023-07-20T06:55:20;4.53;;;2.20;;
61702;SDS011;47622;47.726;3.298;2023-07-20T06:57:46;6.90;;;2.30;;
61702;SDS011;47622;47.726;3.298;2023-07-20T07:00:12;4.70;;;2.05;;
61702;SDS011;47622;47.726;3.298;2023-07-20T07:02:38;5.38;;;1.88;;
61702;SDS011;47622;47.726;3.298;2023-07-20T07:05:04;3.58;;;2.08;;
61702;SDS011;47622;47.726;3.298;2023-07-20T07:07:30;3.70;;;1.98;;
61702;SDS011;47622;47.726;3.298;2023-07-20T07:09:56;4.28;;;2.10;;
61702;SDS011;47622;47.726;3.298;2023-07-20T07:12:23;3.50;;;2.10;;
61702;SDS011;47622;47.726;3.298;2023-07-20T07:14:48;4.72;;;2.05;;
61702;SDS011;47622;47.726;3.298;2023-07-20T07:17:14;3.80;;;2.10;;
61702;SDS011;47622;47.726;3.298;2023-07-20T07:19:39;2.60;;;1.80;;
61702;SDS011;47622;47.726;3.298;2023-07-20T07:22:06;3.15;;;1.90;;
61702;SDS011;47622;47.726;3.298;2023-07-20T07:24:31;4.53;;;2.00;;
61702;SDS011;47622;47.726;3.298;2023-07-20T07:27:00;3.53;;;1.73;;
61702;SDS011;47622;47.726;3.298;2023-07-20T07:29:26;3.08;;;1.75;;
61702;SDS011;47622;47.726;3.298;2023-07-20T07:31:52;2.20;;;1.60;;
61702;SDS011;47622;47.726;3.298;2023-07-20T07:34:17;3.63;;;1.90;;
61702;SDS011;47622;47.726;3.298;2023-07-20T07:36:43;4.85;;;2.03;;
61702;SDS011;47622;47.726;3.298;2023-07-20T07:39:09;2.88;;;1.73;;
61702;SDS011;47622;47.726;3.298;2023-07-20T07:41:35;2.00;;;1.45;;
61702;SDS011;47622;47.726;3.298;2023-07-20T07:44:01;3.80;;;1.75;;
61702;SDS011;47622;47.726;3.298;2023-07-20T07:46:26;5.65;;;1.88;;
61702;SDS011;47622;47.726;3.298;2023-07-20T07:48:52;5.32;;;1.88;;
61702;SDS011;47622;47.726;3.298;2023-07-20T07:51:18;2.95;;;1.70;;
61702;SDS011;47622;47.726;3.298;2023-07-20T07:53:45;4.82;;;1.60;;
61702;SDS011;47622;47.726;3.298;2023-07-20T07:56:11;5.78;;;1.63;;
61702;SDS011;47622;47.726;3.298;2023-07-20T07:58:36;2.90;;;1.58;;
61702;SDS011;47622;47.726;3.298;2023-07-20T08:01:02;4.55;;;1.70;;
61702;SDS011;47622;47.726;3.298;2023-07-20T08:03:28;2.17;;;1.50;;
61702;SDS011;47622;47.726;3.298;2023-07-20T08:05:54;4.72;;;1.80;;
61702;SDS011;47622;47.726;3.298;2023-07-20T08:08:24;9.02;;;2.10;;
61702;SDS011;47622;47.726;3.298;2023-07-20T08:10:53;5.25;;;2.00;;
61702;SDS011;47622;47.726;3.298;2023-07-20T08:13:20;3.00;;;1.50;;
61702;SDS011;47622;47.726;3.298;2023-07-20T08:15:48;3.58;;;1.60;;
61702;SDS011;47622;47.726;3.298;2023-07-20T08:18:15;2.38;;;1.48;;
61702;SDS011;47622;47.726;3.298;2023-07-20T08:20:43;1.85;;;1.50;;
61702;SDS011;47622;47.726;3.298;2023-07-20T08:23:09;2.38;;;1.38;;
61702;SDS011;47622;47.726;3.298;2023-07-20T08:25:38;4.85;;;1.85;;
61702;SDS011;47622;47.726;3.298;2023-07-20T08:30:44;3.40;;;1.40;;
61702;SDS011;47622;47.726;3.298;2023-07-20T08:33:15;3.22;;;1.33;;
61702;SDS011;47622;47.726;3.298;2023-07-20T08:35:44;3.90;;;1.63;;
61702;SDS011;47622;47.726;3.298;2023-07-20T08:38:10;2.97;;;1.63;;
61702;SDS011;47622;47.726;3.298;2023-07-20T08:40:39;3.88;;;1.55;;
61702;SDS011;47622;47.726;3.298;2023-07-20T08:43:07;3.40;;;1.80;;
61702;SDS011;47622;47.726;3.298;2023-07-20T08:45:33;2.22;;;1.50;;
61702;SDS011;47622;47.726;3.298;2023-07-20T08:48:00;3.33;;;1.50;;
61702;SDS011;47622;47.726;3.298;2023-07-20T08:50:30;3.60;;;1.80;;
61702;SDS011;47622;47.726;3.298;2023-07-20T08:52:57;3.95;;;1.65;;
61702;SDS011;47622;47.726;3.298;2023-07-20T08:55:27;3.35;;;1.75;;
61702;SDS011;47622;47.726;3.298;2023-07-20T08:57:54;4.80;;;1.67;;
61702;SDS011;47622;47.726;3.298;2023-07-20T09:00:23;3.00;;;1.30;;
61702;SDS011;47622;47.726;3.298;2023-07-20T09:02:52;3.05;;;1.50;;
61702;SDS011;47622;47.726;3.298;2023-07-20T09:05:19;2.33;;;1.23;;
61702;SDS011;47622;47.726;3.298;2023-07-20T09:07:45;2.47;;;1.60;;
61702;SDS011;47622;47.726;3.298;2023-07-20T09:10:11;3.65;;;1.60;;
61702;SDS011;47622;47.726;3.298;2023-07-20T09:12:38;4.97;;;1.58;;
61702;SDS011;47622;47.726;3.298;2023-07-20T09:15:07;3.90;;;1.65;;
61702;SDS011;47622;47.726;3.298;2023-07-20T09:17:34;1.95;;;1.20;;
61702;SDS011;47622;47.726;3.298;2023-07-20T09:20:06;4.72;;;1.55;;
61702;SDS011;47622;47.726;3.298;2023-07-20T09:22:35;3.38;;;1.45;;
61702;SDS011;47622;47.726;3.298;2023-07-20T09:27:41;4.85;;;1.45;;
61702;SDS011;47622;47.726;3.298;2023-07-20T09:30:08;2.95;;;1.45;;
61702;SDS011;47622;47.726;3.298;2023-07-20T09:32:39;1.17;;;1.08;;
61702;SDS011;47622;47.726;3.298;2023-07-20T09:35:15;2.88;;;1.10;;
61702;SDS011;47622;47.726;3.298;2023-07-20T09:37:46;2.65;;;1.27;;
61702;SDS011;47622;47.726;3.298;2023-07-20T09:40:16;3.50;;;1.23;;
61702;SDS011;47622;47.726;3.298;2023-07-20T09:42:42;2.83;;;1.30;;
61702;SDS011;47622;47.726;3.298;2023-07-20T09:45:09;3.38;;;1.40;;
61702;SDS011;47622;47.726;3.298;2023-07-20T09:47:38;2.08;;;1.30;;
61702;SDS011;47622;47.726;3.298;2023-07-20T09:50:05;1.90;;;1.27;;
61702;SDS011;47622;47.726;3.298;2023-07-20T09:52:42;1.50;;;1.10;;
61702;SDS011;47622;47.726;3.298;2023-07-20T09:55:09;2.38;;;1.15;;
61702;SDS011;47622;47.726;3.298;2023-07-20T09:57:37;2.60;;;1.20;;
61702;SDS011;47622;47.726;3.298;2023-07-20T10:00:03;4.00;;;1.20;;
61702;SDS011;47622;47.726;3.298;2023-07-20T10:02:41;3.38;;;1.40;;
61702;SDS011;47622;47.726;3.298;2023-07-20T10:05:13;3.15;;;1.30;;
61702;SDS011;47622;47.726;3.298;2023-07-20T10:07:43;1.73;;;1.20;;
61702;SDS011;47622;47.726;3.298;2023-07-20T10:10:16;2.10;;;1.33;;
61702;SDS011;47622;47.726;3.298;2023-07-20T10:12:42;4.55;;;1.40;;
61702;SDS011;47622;47.726;3.298;2023-07-20T10:20:55;1.35;;;1.00;;
61702;SDS011;47622;47.726;3.298;2023-07-20T10:23:22;2.05;;;1.10;;
61702;SDS011;47622;47.726;3.298;2023-07-20T10:25:49;2.90;;;1.25;;
61702;SDS011;47622;47.726;3.298;2023-07-20T10:28:15;1.55;;;1.10;;
61702;SDS011;47622;47.726;3.298;2023-07-20T10:30:41;2.58;;;1.10;;
61702;SDS011;47622;47.726;3.298;2023-07-20T10:33:08;2.08;;;1.30;;
61702;SDS011;47622;47.726;3.298;2023-07-20T10:41:21;3.90;;;1.20;;
61702;SDS011;47622;47.726;3.298;2023-07-20T10:43:49;2.67;;;1.33;;
61702;SDS011;47622;47.726;3.298;2023-07-20T10:46:33;1.42;;;1.20;;
61702;SDS011;47622;47.726;3.298;2023-07-20T10:49:05;2.33;;;1.05;;
61702;SDS011;47622;47.726;3.298;2023-07-20T10:51:45;4.13;;;1.50;;
61702;SDS011;47622;47.726;3.298;2023-07-20T10:56:41;5.03;;;1.45;;
61702;SDS011;47622;47.726;3.298;2023-07-20T10:59:20;3.45;;;1.40;;
61702;SDS011;47622;47.726;3.298;2023-07-20T11:02:06;4.93;;;1.10;;
61702;SDS011;47622;47.726;3.298;2023-07-20T11:04:40;2.60;;;1.23;;
61702;SDS011;47622;47.726;3.298;2023-07-20T11:07:09;3.20;;;1.23;;
61702;SDS011;47622;47.726;3.298;2023-07-20T11:09:37;2.72;;;1.48;;
61702;SDS011;47622;47.726;3.298;2023-07-20T11:12:13;2.67;;;1.42;;
61702;SDS011;47622;47.726;3.298;2023-07-20T11:14:43;2.15;;;1.30;;
61702;SDS011;47622;47.726;3.298;2023-07-20T11:17:19;2.03;;;1.48;;
61702;SDS011;47622;47.726;3.298;2023-07-20T11:19:55;2.13;;;1.35;;
61702;SDS011;47622;47.726;3.298;2023-07-20T11:22:21;2.15;;;1.30;;
61702;SDS011;47622;47.726;3.298;2023-07-20T11:24:47;7.28;;;1.38;;
61702;SDS011;47622;47.726;3.298;2023-07-20T11:27:14;3.80;;;1.30;;
61702;SDS011;47622;47.726;3.298;2023-07-20T11:29:40;2.67;;;1.20;;
61702;SDS011;47622;47.726;3.298;2023-07-20T11:32:06;4.10;;;1.30;;
61702;SDS011;47622;47.726;3.298;2023-07-20T11:34:32;3.80;;;1.00;;
61702;SDS011;47622;47.726;3.298;2023-07-20T11:36:59;2.10;;;1.13;;
61702;SDS011;47622;47.726;3.298;2023-07-20T11:39:24;2.47;;;1.20;;
61702;SDS011;47622;47.726;3.298;2023-07-20T11:41:51;2.20;;;1.17;;
61702;SDS011;47622;47.726;3.298;2023-07-20T11:44:18;1.50;;;1.05;;
61702;SDS011;47622;47.726;3.298;2023-07-20T11:47:13;2.15;;;1.10;;
61702;SDS011;47622;47.726;3.298;2023-07-20T11:49:38;3.38;;;1.40;;
61702;SDS011;47622;47.726;3.298;2023-07-20T11:52:11;2.97;;;1.17;;
61702;SDS011;47622;47.726;3.298;2023-07-20T11:54:40;4.15;;;1.23;;
61702;SDS011;47622;47.726;3.298;2023-07-20T11:57:06;1.85;;;1.02;;
61702;SDS011;47622;47.726;3.298;2023-07-20T11:59:32;2.05;;;1.08;;
61702;SDS011;47622;47.726;3.298;2023-07-20T12:02:02;1.95;;;1.00;;
61702;SDS011;47622;47.726;3.298;2023-07-20T12:04:30;2.75;;;1.20;;
61702;SDS011;47622;47.726;3.298;2023-07-20T12:06:57;3.50;;;1.35;;
61702;SDS011;47622;47.726;3.298;2023-07-20T12:09:23;3.10;;;1.20;;
61702;SDS011;47622;47.726;3.298;2023-07-20T12:11:49;3.40;;;1.20;;
61702;SDS011;47622;47.726;3.298;2023-07-20T12:14:15;1.60;;;1.25;;
61702;SDS011;47622;47.726;3.298;2023-07-20T12:16:41;3.05;;;1.20;;
61702;SDS011;47622;47.726;3.298;2023-07-20T12:19:08;3.05;;;1.23;;
61702;SDS011;47622;47.726;3.298;2023-07-20T12:21:38;2.40;;;1.10;;
61702;SDS011;47622;47.726;3.298;2023-07-20T12:24:11;2.42;;;1.08;;
61702;SDS011;47622;47.726;3.298;2023-07-20T12:26:36;3.20;;;1.30;;
61702;SDS011;47622;47.726;3.298;2023-07-20T12:29:03;1.90;;;1.02;;
61702;SDS011;47622;47.726;3.298;2023-07-20T12:31:29;3.25;;;1.00;;
61702;SDS011;47622;47.726;3.298;2023-07-20T12:33:56;3.25;;;1.30;;
61702;SDS011;47622;47.726;3.298;2023-07-20T12:36:23;2.75;;;1.00;;
61702;SDS011;47622;47.726;3.298;2023-07-20T12:38:50;2.22;;;0.90;;
61702;SDS011;47622;47.726;3.298;2023-07-20T12:41:16;3.60;;;1.15;;
61702;SDS011;47622;47.726;3.298;2023-07-20T12:43:43;2.08;;;1.13;;
61702;SDS011;47622;47.726;3.298;2023-07-20T12:46:09;4.25;;;1.20;;
61702;SDS011;47622;47.726;3.298;2023-07-20T12:48:39;1.90;;;1.10;;
61702;SDS011;47622;47.726;3.298;2023-07-20T12:51:07;2.42;;;1.20;;
61702;SDS011;47622;47.726;3.298;2023-07-20T12:53:34;2.40;;;1.10;;
61702;SDS011;47622;47.726;3.298;2023-07-20T12:56:00;1.73;;;1.08;;
61702;SDS011;47622;47.726;3.298;2023-07-20T12:58:26;2.72;;;1.20;;
61702;SDS011;47622;47.726;3.298;2023-07-20T13:00:52;2.83;;;1.00;;
61702;SDS011;47622;47.726;3.298;2023-07-20T13:03:19;1.58;;;1.00;;
61702;SDS011;47622;47.726;3.298;2023-07-20T13:05:45;2.97;;;1.00;;
61702;SDS011;47622;47.726;3.298;2023-07-20T13:08:10;5.43;;;1.33;;
61702;SDS011;47622;47.726;3.298;2023-07-20T13:10:36;4.35;;;1.13;;
61702;SDS011;47622;47.726;3.298;2023-07-20T13:13:03;2.72;;;1.20;;
61702;SDS011;47622;47.726;3.298;2023-07-20T13:15:30;1.70;;;1.20;;
61702;SDS011;47622;47.726;3.298;2023-07-20T13:17:59;2.47;;;1.13;;
61702;SDS011;47622;47.726;3.298;2023-07-20T13:20:25;2.03;;;0.93;;
61702;SDS011;47622;47.726;3.298;2023-07-20T13:22:53;3.05;;;1.30;;
61702;SDS011;47622;47.726;3.298;2023-07-20T13:25:18;1.77;;;1.00;;
61702;SDS011;47622;47.726;3.298;2023-07-20T13:27:44;2.15;;;1.10;;
61702;SDS011;47622;47.726;3.298;2023-07-20T13:30:11;1.73;;;1.20;;
61702;SDS011;47622;47.726;3.298;2023-07-20T13:32:42;1.73;;;0.98;;
61702;SDS011;47622;47.726;3.298;2023-07-20T13:35:11;2.83;;;1.13;;
61702;SDS011;47622;47.726;3.298;2023-07-20T13:37:37;1.35;;;1.00;;
61702;SDS011;47622;47.726;3.298;2023-07-20T13:40:03;2.28;;;1.08;;
61702;SDS011;47622;47.726;3.298;2023-07-20T13:42:33;1.90;;;1.30;;
61702;SDS011;47622;47.726;3.298;2023-07-20T13:44:59;1.75;;;1.00;;
61702;SDS011;47622;47.726;3.298;2023-07-20T13:47:25;3.05;;;1.15;;
61702;SDS011;47622;47.726;3.298;2023-07-20T13:49:53;1.27;;;1.00;;
61702;SDS011;47622;47.726;3.298;2023-07-20T13:52:18;1.98;;;1.10;;
61702;SDS011;47622;47.726;3.298;2023-07-20T13:54:44;2.50;;;1.10;;
61702;SDS011;47622;47.726;3.298;2023-07-20T13:57:10;2.35;;;1.10;;
61702;SDS011;47622;47.726;3.298;2023-07-20T13:59:35;3.97;;;1.23;;
61702;SDS011;47622;47.726;3.298;2023-07-20T14:02:01;1.92;;;1.17;;
61702;SDS011;47622;47.726;3.298;2023-07-20T14:04:28;3.10;;;1.10;;
61702;SDS011;47622;47.726;3.298;2023-07-20T14:06:54;4.07;;;1.10;;
61702;SDS011;47622;47.726;3.298;2023-07-20T14:09:19;1.27;;;1.00;;
61702;SDS011;47622;47.726;3.298;2023-07-20T14:11:45;2.17;;;1.20;;
61702;SDS011;47622;47.726;3.298;2023-07-20T14:14:10;2.40;;;1.25;;
61702;SDS011;47622;47.726;3.298;2023-07-20T14:16:37;1.42;;;1.20;;
61702;SDS011;47622;47.726;3.298;2023-07-20T14:19:03;1.30;;;1.00;;
61702;SDS011;47622;47.726;3.298;2023-07-20T14:21:30;4.40;;;1.10;;
61702;SDS011;47622;47.726;3.298;2023-07-20T14:23:56;2.78;;;1.27;;
61702;SDS011;47622;47.726;3.298;2023-07-20T14:26:22;1.30;;;1.10;;
61702;SDS011;47622;47.726;3.298;2023-07-20T14:28:48;2.88;;;1.20;;
61702;SDS011;47622;47.726;3.298;2023-07-20T14:31:14;1.90;;;1.10;;
61702;SDS011;47622;47.726;3.298;2023-07-20T14:33:40;2.80;;;1.00;;
61702;SDS011;47622;47.726;3.298;2023-07-20T14:36:05;2.08;;;1.10;;
61702;SDS011;47622;47.726;3.298;2023-07-20T14:38:31;3.42;;;1.20;;
61702;SDS011;47622;47.726;3.298;2023-07-20T14:40:58;2.03;;;1.10;;
61702;SDS011;47622;47.726;3.298;2023-07-20T14:43:24;2.70;;;1.13;;
61702;SDS011;47622;47.726;3.298;2023-07-20T14:45:49;2.78;;;1.23;;
61702;SDS011;47622;47.726;3.298;2023-07-20T14:48:15;4.57;;;1.20;;
61702;SDS011;47622;47.726;3.298;2023-07-20T14:50:42;3.20;;;1.00;;
61702;SDS011;47622;47.726;3.298;2023-07-20T14:53:10;2.40;;;1.00;;
61702;SDS011;47622;47.726;3.298;2023-07-20T14:55:38;1.73;;;1.10;;
61702;SDS011;47622;47.726;3.298;2023-07-20T14:58:04;2.33;;;1.20;;
61702;SDS011;47622;47.726;3.298;2023-07-20T15:00:29;3.88;;;1.00;;
61702;SDS011;47622;47.726;3.298;2023-07-20T15:02:55;1.77;;;1.10;;
61702;SDS011;47622;47.726;3.298;2023-07-20T15:05:21;2.83;;;1.30;;
61702;SDS011;47622;47.726;3.298;2023-07-20T15:07:48;1.65;;;1.00;;
61702;SDS011;47622;47.726;3.298;2023-07-20T15:10:15;2.45;;;1.08;;
61702;SDS011;47622;47.726;3.298;2023-07-20T15:12:41;3.58;;;1.05;;
61702;SDS011;47622;47.726;3.298;2023-07-20T15:15:08;1.40;;;1.10;;